sensor_id;sensor_type;location;lat;lon;timestamp;P1;durP1;ratioP1;P2;durP2;ratioP2
16880;SDS011;8557;52.068;5.198;2022-12-07T00:00:02;6.03;;;4.03;;
16880;SDS011;8557;52.068;5.198;2022-12-07T00:02:30;5.45;;;4.00;;
16880;SDS011;8557;52.068;5.198;2022-12-07T00:04:58;9.63;;;4.35;;
16880;SDS011;8557;52.068;5.198;2022-12-07T00:07:25;6.30;;;3.95;;
16880;SDS011;8557;52.068;5.198;2022-12-07T00:09:52;9.00;;;4.30;;
16880;SDS011;8557;52.068;5.198;2022-12-07T00:12:18;7.05;;;3.85;;
16880;SDS011;8557;52.068;5.198;2022-12-07T00:14:46;6.43;;;4.07;;
16880;SDS011;8557;52.068;5.198;2022-12-07T00:17:13;9.00;;;3.63;;
16880;SDS011;8557;52.068;5.198;2022-12-07T00:19:39;7.13;;;3.30;;
16880;SDS011;8557;52.068;5.198;2022-12-07T00:22:07;5.72;;;3.60;;
16880;SDS011;8557;52.068;5.198;2022-12-07T00:24:34;5.75;;;3.40;;
16880;SDS011;8557;52.068;5.198;2022-12-07T00:27:01;7.20;;;3.47;;
16880;SDS011;8557;52.068;5.198;2022-12-07T00:29:28;8.32;;;3.05;;
16880;SDS011;8557;52.068;5.198;2022-12-07T00:31:54;8.95;;;3.08;;
16880;SDS011;8557;52.068;5.198;2022-12-07T00:34:21;7.05;;;3.17;;
16880;SDS011;8557;52.068;5.198;2022-12-07T00:36:48;6.95;;;3.35;;
16880;SDS011;8557;52.068;5.198;2022-12-07T00:39:17;5.82;;;3.00;;
16880;SDS011;8557;52.068;5.198;2022-12-07T00:41:44;4.07;;;3.20;;
16880;SDS011;8557;52.068;5.198;2022-12-07T00:44:11;7.35;;;3.58;;
16880;SDS011;8557;52.068;5.198;2022-12-07T00:46:37;8.57;;;3.85;;
16880;SDS011;8557;52.068;5.198;2022-12-07T00:49:04;6.35;;;3.33;;
16880;SDS011;8557;52.068;5.198;2022-12-07T00:51:31;8.30;;;3.30;;
16880;SDS011;8557;52.068;5.198;2022-12-07T00:53:58;7.60;;;2.95;;
16880;SDS011;8557;52.068;5.198;2022-12-07T00:56:27;6.53;;;2.65;;
16880;SDS011;8557;52.068;5.198;2022-12-07T00:58:55;4.43;;;3.10;;
16880;SDS011;8557;52.068;5.198;2022-12-07T01:01:24;4.82;;;2.83;;
16880;SDS011;8557;52.068;5.198;2022-12-07T01:03:52;4.25;;;2.88;;
16880;SDS011;8557;52.068;5.198;2022-12-07T01:06:19;6.35;;;2.78;;
16880;SDS011;8557;52.068;5.198;2022-12-07T01:08:48;5.03;;;2.28;;
16880;SDS011;8557;52.068;5.198;2022-12-07T01:11:15;5.38;;;2.40;;
16880;SDS011;8557;52.068;5.198;2022-12-07T01:13:45;3.13;;;2.35;;
16880;SDS011;8557;52.068;5.198;2022-12-07T01:16:13;6.35;;;2.33;;
16880;SDS011;8557;52.068;5.198;2022-12-07T01:18:42;5.50;;;2.40;;
16880;SDS011;8557;52.068;5.198;2022-12-07T01:21:12;4.78;;;2.40;;
16880;SDS011;8557;52.068;5.198;2022-12-07T01:23:40;6.43;;;2.92;;
16880;SDS011;8557;52.068;5.198;2022-12-07T01:26:09;4.82;;;2.42;;
16880;SDS011;8557;52.068;5.198;2022-12-07T01:28:38;3.90;;;2.40;;
16880;SDS011;8557;52.068;5.198;2022-12-07T01:31:07;3.35;;;2.65;;
16880;SDS011;8557;52.068;5.198;2022-12-07T01:33:37;6.45;;;2.55;;
16880;SDS011;8557;52.068;5.198;2022-12-07T01:36:05;5.10;;;2.80;;
16880;SDS011;8557;52.068;5.198;2022-12-07T01:38:33;7.68;;;2.50;;
16880;SDS011;8557;52.068;5.198;2022-12-07T01:41:01;5.97;;;2.97;;
16880;SDS011;8557;52.068;5.198;2022-12-07T01:43:29;5.20;;;2.70;;
16880;SDS011;8557;52.068;5.198;2022-12-07T01:45:57;6.22;;;2.80;;
16880;SDS011;8557;52.068;5.198;2022-12-07T01:48:26;6.78;;;3.28;;
16880;SDS011;8557;52.068;5.198;2022-12-07T01:50:55;3.90;;;2.80;;
16880;SDS011;8557;52.068;5.198;2022-12-07T01:53:27;3.33;;;2.60;;
16880;SDS011;8557;52.068;5.198;2022-12-07T01:55:56;5.07;;;2.85;;
16880;SDS011;8557;52.068;5.198;2022-12-07T01:58:25;5.95;;;3.03;;
16880;SDS011;8557;52.068;5.198;2022-12-07T02:00:52;5.47;;;2.85;;
16880;SDS011;8557;52.068;5.198;2022-12-07T02:03:19;10.95;;;3.70;;
16880;SDS011;8557;52.068;5.198;2022-12-07T02:05:53;5.47;;;2.75;;
16880;SDS011;8557;52.068;5.198;2022-12-07T02:08:21;6.03;;;3.10;;
16880;SDS011;8557;52.068;5.198;2022-12-07T02:10:48;8.60;;;3.08;;
16880;SDS011;8557;52.068;5.198;2022-12-07T02:13:15;7.78;;;3.10;;
16880;SDS011;8557;52.068;5.198;2022-12-07T02:15:57;9.00;;;3.15;;
16880;SDS011;8557;52.068;5.198;2022-12-07T02:18:38;5.65;;;2.70;;
16880;SDS011;8557;52.068;5.198;2022-12-07T02:21:22;6.82;;;2.60;;
16880;SDS011;8557;52.068;5.198;2022-12-07T02:24:06;8.15;;;4.20;;
16880;SDS011;8557;52.068;5.198;2022-12-07T02:29:47;5.93;;;2.58;;
16880;SDS011;8557;52.068;5.198;2022-12-07T02:32:21;7.00;;;2.35;;
16880;SDS011;8557;52.068;5.198;2022-12-07T02:34:53;9.77;;;2.95;;
16880;SDS011;8557;52.068;5.198;2022-12-07T02:37:27;9.45;;;2.38;;
16880;SDS011;8557;52.068;5.198;2022-12-07T02:40:01;5.30;;;2.20;;
16880;SDS011;8557;52.068;5.198;2022-12-07T02:42:36;9.02;;;2.35;;
16880;SDS011;8557;52.068;5.198;2022-12-07T02:45:09;6.30;;;2.40;;
16880;SDS011;8557;52.068;5.198;2022-12-07T02:47:38;5.78;;;2.20;;
16880;SDS011;8557;52.068;5.198;2022-12-07T02:50:07;6.53;;;2.15;;
16880;SDS011;8557;52.068;5.198;2022-12-07T02:52:34;5.50;;;2.30;;
16880;SDS011;8557;52.068;5.198;2022-12-07T02:55:01;6.63;;;2.03;;
16880;SDS011;8557;52.068;5.198;2022-12-07T02:57:42;6.20;;;2.33;;
16880;SDS011;8557;52.068;5.198;2022-12-07T03:00:21;6.53;;;2.25;;
16880;SDS011;8557;52.068;5.198;2022-12-07T03:02:52;7.00;;;2.10;;
16880;SDS011;8557;52.068;5.198;2022-12-07T03:05:31;4.65;;;2.28;;
16880;SDS011;8557;52.068;5.198;2022-12-07T03:08:13;4.60;;;2.40;;
16880;SDS011;8557;52.068;5.198;2022-12-07T03:10:48;6.47;;;2.40;;
16880;SDS011;8557;52.068;5.198;2022-12-07T03:13:23;7.28;;;2.00;;
16880;SDS011;8557;52.068;5.198;2022-12-07T03:15:58;5.85;;;2.20;;
16880;SDS011;8557;52.068;5.198;2022-12-07T03:18:32;4.93;;;2.50;;
16880;SDS011;8557;52.068;5.198;2022-12-07T03:21:03;6.63;;;2.60;;
16880;SDS011;8557;52.068;5.198;2022-12-07T03:23:34;7.95;;;2.10;;
16880;SDS011;8557;52.068;5.198;2022-12-07T03:26:04;6.30;;;2.20;;
16880;SDS011;8557;52.068;5.198;2022-12-07T03:28:35;4.22;;;1.88;;
16880;SDS011;8557;52.068;5.198;2022-12-07T03:31:19;6.00;;;1.95;;
16880;SDS011;8557;52.068;5.198;2022-12-07T03:33:49;4.55;;;1.88;;
16880;SDS011;8557;52.068;5.198;2022-12-07T03:36:23;5.03;;;2.33;;
16880;SDS011;8557;52.068;5.198;2022-12-07T03:38:55;4.60;;;1.92;;
16880;SDS011;8557;52.068;5.198;2022-12-07T03:41:28;7.18;;;2.40;;
16880;SDS011;8557;52.068;5.198;2022-12-07T03:43:57;7.50;;;2.00;;
16880;SDS011;8557;52.068;5.198;2022-12-07T03:46:29;6.63;;;2.38;;
16880;SDS011;8557;52.068;5.198;2022-12-07T03:49:04;4.38;;;2.13;;
16880;SDS011;8557;52.068;5.198;2022-12-07T03:51:39;6.80;;;2.38;;
16880;SDS011;8557;52.068;5.198;2022-12-07T03:54:10;5.45;;;2.35;;
16880;SDS011;8557;52.068;5.198;2022-12-07T03:56:42;6.22;;;2.08;;
16880;SDS011;8557;52.068;5.198;2022-12-07T03:59:10;6.30;;;3.00;;
16880;SDS011;8557;52.068;5.198;2022-12-07T04:01:42;4.00;;;2.20;;
16880;SDS011;8557;52.068;5.198;2022-12-07T04:04:09;5.78;;;2.28;;
16880;SDS011;8557;52.068;5.198;2022-12-07T04:06:36;4.22;;;2.25;;
16880;SDS011;8557;52.068;5.198;2022-12-07T04:09:03;5.93;;;2.50;;
16880;SDS011;8557;52.068;5.198;2022-12-07T04:11:29;5.22;;;2.75;;
16880;SDS011;8557;52.068;5.198;2022-12-07T04:13:56;5.40;;;2.30;;
16880;SDS011;8557;52.068;5.198;2022-12-07T04:16:37;7.25;;;2.17;;
16880;SDS011;8557;52.068;5.198;2022-12-07T04:19:05;4.68;;;2.00;;
16880;SDS011;8557;52.068;5.198;2022-12-07T04:21:31;3.65;;;1.98;;
16880;SDS011;8557;52.068;5.198;2022-12-07T04:23:58;5.30;;;1.95;;
16880;SDS011;8557;52.068;5.198;2022-12-07T04:26:25;2.90;;;1.80;;
16880;SDS011;8557;52.068;5.198;2022-12-07T04:28:52;5.22;;;2.00;;
16880;SDS011;8557;52.068;5.198;2022-12-07T04:31:18;5.68;;;2.20;;
16880;SDS011;8557;52.068;5.198;2022-12-07T04:33:45;5.53;;;2.38;;
16880;SDS011;8557;52.068;5.198;2022-12-07T04:36:13;9.95;;;3.05;;
16880;SDS011;8557;52.068;5.198;2022-12-07T04:38:40;6.80;;;2.35;;
16880;SDS011;8557;52.068;5.198;2022-12-07T04:41:07;9.93;;;2.33;;
16880;SDS011;8557;52.068;5.198;2022-12-07T04:43:35;5.22;;;1.83;;
16880;SDS011;8557;52.068;5.198;2022-12-07T04:46:02;6.40;;;2.17;;
16880;SDS011;8557;52.068;5.198;2022-12-07T04:48:29;5.30;;;2.72;;
16880;SDS011;8557;52.068;5.198;2022-12-07T04:50:56;6.32;;;2.25;;
16880;SDS011;8557;52.068;5.198;2022-12-07T04:53:24;4.45;;;2.03;;
16880;SDS011;8557;52.068;5.198;2022-12-07T04:55:51;7.55;;;2.50;;
16880;SDS011;8557;52.068;5.198;2022-12-07T04:58:17;5.00;;;2.17;;
16880;SDS011;8557;52.068;5.198;2022-12-07T05:00:44;4.97;;;2.50;;
16880;SDS011;8557;52.068;5.198;2022-12-07T05:03:11;7.05;;;2.40;;
16880;SDS011;8557;52.068;5.198;2022-12-07T05:05:39;2.42;;;2.20;;
16880;SDS011;8557;52.068;5.198;2022-12-07T05:08:06;9.45;;;3.95;;
16880;SDS011;8557;52.068;5.198;2022-12-07T05:10:34;4.53;;;2.63;;
16880;SDS011;8557;52.068;5.198;2022-12-07T05:13:01;7.45;;;2.53;;
16880;SDS011;8557;52.068;5.198;2022-12-07T05:15:28;5.72;;;2.13;;
16880;SDS011;8557;52.068;5.198;2022-12-07T05:17:55;4.93;;;2.13;;
16880;SDS011;8557;52.068;5.198;2022-12-07T05:20:23;6.32;;;2.30;;
16880;SDS011;8557;52.068;5.198;2022-12-07T05:22:50;5.15;;;2.30;;
16880;SDS011;8557;52.068;5.198;2022-12-07T05:25:17;4.80;;;2.40;;
16880;SDS011;8557;52.068;5.198;2022-12-07T05:27:45;4.68;;;1.98;;
16880;SDS011;8557;52.068;5.198;2022-12-07T05:30:12;6.65;;;2.17;;
16880;SDS011;8557;52.068;5.198;2022-12-07T05:32:39;4.60;;;2.25;;
16880;SDS011;8557;52.068;5.198;2022-12-07T05:35:06;6.18;;;2.03;;
16880;SDS011;8557;52.068;5.198;2022-12-07T05:37:33;7.68;;;2.10;;
16880;SDS011;8557;52.068;5.198;2022-12-07T05:40:00;5.63;;;2.38;;
16880;SDS011;8557;52.068;5.198;2022-12-07T05:42:27;5.50;;;2.25;;
16880;SDS011;8557;52.068;5.198;2022-12-07T05:44:55;8.35;;;3.00;;
16880;SDS011;8557;52.068;5.198;2022-12-07T05:47:22;8.75;;;2.08;;
16880;SDS011;8557;52.068;5.198;2022-12-07T05:49:48;5.07;;;1.83;;
16880;SDS011;8557;52.068;5.198;2022-12-07T05:52:15;4.65;;;1.70;;
16880;SDS011;8557;52.068;5.198;2022-12-07T05:54:43;4.18;;;1.52;;
16880;SDS011;8557;52.068;5.198;2022-12-07T05:57:09;6.63;;;2.28;;
16880;SDS011;8557;52.068;5.198;2022-12-07T05:59:36;7.22;;;2.38;;
16880;SDS011;8557;52.068;5.198;2022-12-07T06:02:04;6.45;;;2.08;;
16880;SDS011;8557;52.068;5.198;2022-12-07T06:04:33;3.33;;;1.77;;
16880;SDS011;8557;52.068;5.198;2022-12-07T06:07:01;3.72;;;1.80;;
16880;SDS011;8557;52.068;5.198;2022-12-07T06:09:28;5.50;;;1.60;;
16880;SDS011;8557;52.068;5.198;2022-12-07T06:11:55;6.68;;;2.00;;
16880;SDS011;8557;52.068;5.198;2022-12-07T06:14:40;8.15;;;2.10;;
16880;SDS011;8557;52.068;5.198;2022-12-07T06:17:09;6.45;;;1.70;;
16880;SDS011;8557;52.068;5.198;2022-12-07T06:19:37;3.55;;;1.58;;
16880;SDS011;8557;52.068;5.198;2022-12-07T06:22:03;10.05;;;2.30;;
16880;SDS011;8557;52.068;5.198;2022-12-07T06:24:31;7.63;;;1.60;;
16880;SDS011;8557;52.068;5.198;2022-12-07T06:26:58;6.28;;;1.80;;
16880;SDS011;8557;52.068;5.198;2022-12-07T06:29:25;5.20;;;2.10;;
16880;SDS011;8557;52.068;5.198;2022-12-07T06:31:52;4.32;;;2.00;;
16880;SDS011;8557;52.068;5.198;2022-12-07T06:34:20;6.78;;;1.85;;
16880;SDS011;8557;52.068;5.198;2022-12-07T06:36:48;6.45;;;1.80;;
16880;SDS011;8557;52.068;5.198;2022-12-07T06:39:16;6.45;;;1.80;;
16880;SDS011;8557;52.068;5.198;2022-12-07T06:41:44;6.53;;;2.10;;
16880;SDS011;8557;52.068;5.198;2022-12-07T06:44:10;5.68;;;1.90;;
16880;SDS011;8557;52.068;5.198;2022-12-07T06:46:39;5.95;;;1.75;;
16880;SDS011;8557;52.068;5.198;2022-12-07T06:49:08;4.32;;;1.88;;
16880;SDS011;8557;52.068;5.198;2022-12-07T06:51:37;4.63;;;1.77;;
16880;SDS011;8557;52.068;5.198;2022-12-07T06:54:06;4.45;;;1.77;;
16880;SDS011;8557;52.068;5.198;2022-12-07T06:56:33;7.45;;;1.63;;
16880;SDS011;8557;52.068;5.198;2022-12-07T06:58:59;5.20;;;1.90;;
16880;SDS011;8557;52.068;5.198;2022-12-07T07:01:27;6.65;;;2.13;;
16880;SDS011;8557;52.068;5.198;2022-12-07T07:03:54;6.07;;;2.03;;
16880;SDS011;8557;52.068;5.198;2022-12-07T07:06:21;7.47;;;1.90;;
16880;SDS011;8557;52.068;5.198;2022-12-07T07:08:49;7.40;;;1.98;;
16880;SDS011;8557;52.068;5.198;2022-12-07T07:11:16;5.97;;;2.28;;
16880;SDS011;8557;52.068;5.198;2022-12-07T07:13:43;8.10;;;1.90;;
16880;SDS011;8557;52.068;5.198;2022-12-07T07:16:10;6.32;;;1.73;;
16880;SDS011;8557;52.068;5.198;2022-12-07T07:18:37;6.15;;;2.00;;
16880;SDS011;8557;52.068;5.198;2022-12-07T07:21:04;9.75;;;1.98;;
16880;SDS011;8557;52.068;5.198;2022-12-07T07:23:31;8.93;;;1.90;;
16880;SDS011;8557;52.068;5.198;2022-12-07T07:25:59;4.25;;;1.83;;
16880;SDS011;8557;52.068;5.198;2022-12-07T07:28:26;4.53;;;1.75;;
16880;SDS011;8557;52.068;5.198;2022-12-07T07:30:53;5.65;;;1.77;;
16880;SDS011;8557;52.068;5.198;2022-12-07T07:33:19;10.48;;;2.20;;
16880;SDS011;8557;52.068;5.198;2022-12-07T07:35:46;6.72;;;1.75;;
16880;SDS011;8557;52.068;5.198;2022-12-07T07:38:13;6.50;;;1.70;;
16880;SDS011;8557;52.068;5.198;2022-12-07T07:40:40;4.88;;;1.80;;
16880;SDS011;8557;52.068;5.198;2022-12-07T07:43:08;6.22;;;2.30;;
16880;SDS011;8557;52.068;5.198;2022-12-07T07:45:35;4.82;;;1.65;;
16880;SDS011;8557;52.068;5.198;2022-12-07T07:48:02;7.45;;;2.50;;
16880;SDS011;8557;52.068;5.198;2022-12-07T07:50:29;4.05;;;1.83;;
16880;SDS011;8557;52.068;5.198;2022-12-07T07:52:56;9.40;;;2.13;;
16880;SDS011;8557;52.068;5.198;2022-12-07T07:55:23;10.18;;;3.00;;
16880;SDS011;8557;52.068;5.198;2022-12-07T07:57:50;5.60;;;1.90;;
16880;SDS011;8557;52.068;5.198;2022-12-07T08:00:18;6.45;;;1.83;;
16880;SDS011;8557;52.068;5.198;2022-12-07T08:02:45;6.35;;;2.30;;
16880;SDS011;8557;52.068;5.198;2022-12-07T08:05:12;4.50;;;2.20;;
16880;SDS011;8557;52.068;5.198;2022-12-07T08:07:39;7.22;;;2.50;;
16880;SDS011;8557;52.068;5.198;2022-12-07T08:10:08;4.05;;;2.50;;
16880;SDS011;8557;52.068;5.198;2022-12-07T08:12:37;5.93;;;2.78;;
16880;SDS011;8557;52.068;5.198;2022-12-07T08:15:26;11.50;;;2.35;;
16880;SDS011;8557;52.068;5.198;2022-12-07T08:17:54;7.57;;;2.28;;
16880;SDS011;8557;52.068;5.198;2022-12-07T08:20:21;7.43;;;2.20;;
16880;SDS011;8557;52.068;5.198;2022-12-07T08:22:48;6.38;;;2.30;;
16880;SDS011;8557;52.068;5.198;2022-12-07T08:25:15;6.63;;;2.30;;
16880;SDS011;8557;52.068;5.198;2022-12-07T08:27:43;5.25;;;2.20;;
16880;SDS011;8557;52.068;5.198;2022-12-07T08:30:10;6.95;;;2.10;;
16880;SDS011;8557;52.068;5.198;2022-12-07T08:32:38;6.15;;;2.15;;
16880;SDS011;8557;52.068;5.198;2022-12-07T08:35:06;7.47;;;2.00;;
16880;SDS011;8557;52.068;5.198;2022-12-07T08:37:33;5.85;;;1.95;;
16880;SDS011;8557;52.068;5.198;2022-12-07T08:40:00;10.73;;;2.13;;
16880;SDS011;8557;52.068;5.198;2022-12-07T08:42:27;3.97;;;2.20;;
16880;SDS011;8557;52.068;5.198;2022-12-07T08:44:55;9.48;;;2.58;;
16880;SDS011;8557;52.068;5.198;2022-12-07T08:47:22;5.90;;;1.88;;
16880;SDS011;8557;52.068;5.198;2022-12-07T08:49:51;3.40;;;1.77;;
16880;SDS011;8557;52.068;5.198;2022-12-07T08:52:19;7.43;;;2.38;;
16880;SDS011;8557;52.068;5.198;2022-12-07T08:54:46;6.30;;;2.30;;
16880;SDS011;8557;52.068;5.198;2022-12-07T08:57:13;7.47;;;2.22;;
16880;SDS011;8557;52.068;5.198;2022-12-07T08:59:40;8.75;;;2.38;;
16880;SDS011;8557;52.068;5.198;2022-12-07T09:02:07;5.80;;;1.88;;
16880;SDS011;8557;52.068;5.198;2022-12-07T09:04:34;7.82;;;2.47;;
16880;SDS011;8557;52.068;5.198;2022-12-07T09:07:02;10.68;;;2.13;;
16880;SDS011;8557;52.068;5.198;2022-12-07T09:09:29;4.68;;;1.95;;
16880;SDS011;8557;52.068;5.198;2022-12-07T09:11:56;4.95;;;1.92;;
16880;SDS011;8557;52.068;5.198;2022-12-07T09:14:23;8.45;;;1.90;;
16880;SDS011;8557;52.068;5.198;2022-12-07T09:16:50;7.65;;;2.20;;
16880;SDS011;8557;52.068;5.198;2022-12-07T09:19:17;4.22;;;1.83;;
16880;SDS011;8557;52.068;5.198;2022-12-07T09:21:43;4.80;;;2.05;;
16880;SDS011;8557;52.068;5.198;2022-12-07T09:24:12;8.32;;;2.08;;
16880;SDS011;8557;52.068;5.198;2022-12-07T09:26:39;3.75;;;1.98;;
16880;SDS011;8557;52.068;5.198;2022-12-07T09:29:06;7.45;;;2.00;;
16880;SDS011;8557;52.068;5.198;2022-12-07T09:31:36;7.57;;;1.92;;
16880;SDS011;8557;52.068;5.198;2022-12-07T09:34:03;7.03;;;1.98;;
16880;SDS011;8557;52.068;5.198;2022-12-07T09:36:31;7.82;;;2.00;;
16880;SDS011;8557;52.068;5.198;2022-12-07T09:38:58;5.82;;;2.40;;
16880;SDS011;8557;52.068;5.198;2022-12-07T09:41:26;5.95;;;2.25;;
16880;SDS011;8557;52.068;5.198;2022-12-07T09:43:57;7.22;;;2.10;;
16880;SDS011;8557;52.068;5.198;2022-12-07T09:46:33;9.48;;;2.72;;
16880;SDS011;8557;52.068;5.198;2022-12-07T09:49:02;7.35;;;2.20;;
16880;SDS011;8557;52.068;5.198;2022-12-07T09:51:30;5.82;;;1.95;;
16880;SDS011;8557;52.068;5.198;2022-12-07T09:53:58;7.38;;;1.50;;
16880;SDS011;8557;52.068;5.198;2022-12-07T09:56:28;3.70;;;1.80;;
16880;SDS011;8557;52.068;5.198;2022-12-07T09:58:58;5.80;;;1.67;;
16880;SDS011;8557;52.068;5.198;2022-12-07T10:01:27;5.35;;;1.42;;
16880;SDS011;8557;52.068;5.198;2022-12-07T10:04:01;7.50;;;1.80;;
16880;SDS011;8557;52.068;5.198;2022-12-07T10:06:36;7.30;;;1.73;;
16880;SDS011;8557;52.068;5.198;2022-12-07T10:09:08;8.23;;;1.50;;
16880;SDS011;8557;52.068;5.198;2022-12-07T10:14:26;5.60;;;1.52;;
16880;SDS011;8557;52.068;5.198;2022-12-07T10:16:55;4.50;;;1.70;;
16880;SDS011;8557;52.068;5.198;2022-12-07T10:19:23;7.05;;;1.63;;
16880;SDS011;8557;52.068;5.198;2022-12-07T10:22:01;6.93;;;1.90;;
16880;SDS011;8557;52.068;5.198;2022-12-07T10:24:37;4.47;;;1.58;;
16880;SDS011;8557;52.068;5.198;2022-12-07T10:27:10;5.85;;;1.80;;
16880;SDS011;8557;52.068;5.198;2022-12-07T10:29:47;5.90;;;1.50;;
16880;SDS011;8557;52.068;5.198;2022-12-07T10:32:30;5.03;;;1.70;;
16880;SDS011;8557;52.068;5.198;2022-12-07T10:37:48;6.13;;;1.77;;
16880;SDS011;8557;52.068;5.198;2022-12-07T10:40:23;7.88;;;1.60;;
16880;SDS011;8557;52.068;5.198;2022-12-07T10:43:12;6.55;;;2.05;;
16880;SDS011;8557;52.068;5.198;2022-12-07T10:45:54;4.47;;;1.60;;
16880;SDS011;8557;52.068;5.198;2022-12-07T10:48:33;4.40;;;1.33;;
16880;SDS011;8557;52.068;5.198;2022-12-07T10:51:09;6.68;;;1.63;;
16880;SDS011;8557;52.068;5.198;2022-12-07T10:53:51;5.65;;;1.35;;
16880;SDS011;8557;52.068;5.198;2022-12-07T10:56:29;3.55;;;1.40;;
16880;SDS011;8557;52.068;5.198;2022-12-07T10:59:19;3.58;;;1.50;;
16880;SDS011;8557;52.068;5.198;2022-12-07T11:02:15;4.18;;;1.40;;
16880;SDS011;8557;52.068;5.198;2022-12-07T11:04:55;4.45;;;1.30;;
16880;SDS011;8557;52.068;5.198;2022-12-07T11:07:34;5.95;;;1.67;;
16880;SDS011;8557;52.068;5.198;2022-12-07T11:10:11;3.60;;;1.40;;
16880;SDS011;8557;52.068;5.198;2022-12-07T11:12:51;4.97;;;2.17;;
16880;SDS011;8557;52.068;5.198;2022-12-07T11:15:31;4.78;;;1.40;;
16880;SDS011;8557;52.068;5.198;2022-12-07T11:18:06;4.55;;;1.85;;
16880;SDS011;8557;52.068;5.198;2022-12-07T11:20:40;4.70;;;2.08;;
16880;SDS011;8557;52.068;5.198;2022-12-07T11:23:13;5.97;;;1.77;;
16880;SDS011;8557;52.068;5.198;2022-12-07T11:25:48;4.65;;;1.77;;
16880;SDS011;8557;52.068;5.198;2022-12-07T11:28:24;4.55;;;1.23;;
16880;SDS011;8557;52.068;5.198;2022-12-07T11:31:05;5.40;;;1.60;;
16880;SDS011;8557;52.068;5.198;2022-12-07T11:33:39;6.10;;;1.55;;
16880;SDS011;8557;52.068;5.198;2022-12-07T11:36:16;14.30;;;3.42;;
16880;SDS011;8557;52.068;5.198;2022-12-07T11:38:57;5.60;;;2.42;;
16880;SDS011;8557;52.068;5.198;2022-12-07T11:41:28;6.68;;;2.03;;
16880;SDS011;8557;52.068;5.198;2022-12-07T11:44:00;5.50;;;1.40;;
16880;SDS011;8557;52.068;5.198;2022-12-07T11:46:35;3.78;;;1.13;;
16880;SDS011;8557;52.068;5.198;2022-12-07T11:49:13;5.53;;;1.60;;
16880;SDS011;8557;52.068;5.198;2022-12-07T11:51:47;1.75;;;1.10;;
16880;SDS011;8557;52.068;5.198;2022-12-07T11:54:17;1.67;;;1.13;;
16880;SDS011;8557;52.068;5.198;2022-12-07T11:56:49;2.15;;;1.00;;
16880;SDS011;8557;52.068;5.198;2022-12-07T11:59:17;7.68;;;2.65;;
16880;SDS011;8557;52.068;5.198;2022-12-07T12:01:53;5.82;;;1.50;;
16880;SDS011;8557;52.068;5.198;2022-12-07T12:04:25;4.93;;;1.42;;
16880;SDS011;8557;52.068;5.198;2022-12-07T12:06:57;4.07;;;1.45;;
16880;SDS011;8557;52.068;5.198;2022-12-07T12:09:25;5.70;;;1.42;;
16880;SDS011;8557;52.068;5.198;2022-12-07T12:12:08;4.53;;;1.30;;
16880;SDS011;8557;52.068;5.198;2022-12-07T12:15:04;2.85;;;1.08;;
16880;SDS011;8557;52.068;5.198;2022-12-07T12:17:49;2.00;;;1.30;;
16880;SDS011;8557;52.068;5.198;2022-12-07T12:20:35;4.72;;;1.40;;
16880;SDS011;8557;52.068;5.198;2022-12-07T12:23:09;4.82;;;1.58;;
16880;SDS011;8557;52.068;5.198;2022-12-07T12:25:40;5.85;;;1.90;;
16880;SDS011;8557;52.068;5.198;2022-12-07T12:28:19;4.60;;;1.40;;
16880;SDS011;8557;52.068;5.198;2022-12-07T12:31:04;5.72;;;1.67;;
16880;SDS011;8557;52.068;5.198;2022-12-07T12:33:34;3.22;;;1.10;;
16880;SDS011;8557;52.068;5.198;2022-12-07T12:36:18;3.28;;;1.40;;
16880;SDS011;8557;52.068;5.198;2022-12-07T12:38:49;4.32;;;1.20;;
16880;SDS011;8557;52.068;5.198;2022-12-07T12:51:35;3.13;;;1.30;;
16880;SDS011;8557;52.068;5.198;2022-12-07T12:54:04;2.40;;;1.13;;
16880;SDS011;8557;52.068;5.198;2022-12-07T12:56:39;4.18;;;1.40;;
16880;SDS011;8557;52.068;5.198;2022-12-07T12:59:19;6.60;;;1.00;;
16880;SDS011;8557;52.068;5.198;2022-12-07T13:01:49;4.00;;;1.27;;
16880;SDS011;8557;52.068;5.198;2022-12-07T13:04:18;4.32;;;1.55;;
16880;SDS011;8557;52.068;5.198;2022-12-07T13:07:04;5.95;;;1.58;;
16880;SDS011;8557;52.068;5.198;2022-12-07T13:09:35;5.63;;;1.52;;
16880;SDS011;8557;52.068;5.198;2022-12-07T13:12:03;3.97;;;1.08;;
16880;SDS011;8557;52.068;5.198;2022-12-07T13:14:42;6.57;;;1.40;;
16880;SDS011;8557;52.068;5.198;2022-12-07T13:20:43;4.65;;;1.63;;
16880;SDS011;8557;52.068;5.198;2022-12-07T13:23:18;3.60;;;1.50;;
16880;SDS011;8557;52.068;5.198;2022-12-07T13:28:41;3.90;;;1.38;;
16880;SDS011;8557;52.068;5.198;2022-12-07T13:31:19;3.22;;;1.45;;
16880;SDS011;8557;52.068;5.198;2022-12-07T13:33:56;3.95;;;1.40;;
16880;SDS011;8557;52.068;5.198;2022-12-07T13:36:24;5.55;;;1.50;;
16880;SDS011;8557;52.068;5.198;2022-12-07T13:38:54;4.38;;;1.50;;
16880;SDS011;8557;52.068;5.198;2022-12-07T13:41:23;7.47;;;1.60;;
16880;SDS011;8557;52.068;5.198;2022-12-07T13:43:53;5.75;;;1.83;;
16880;SDS011;8557;52.068;5.198;2022-12-07T13:46:30;5.55;;;1.70;;
16880;SDS011;8557;52.068;5.198;2022-12-07T13:49:02;5.90;;;1.60;;
16880;SDS011;8557;52.068;5.198;2022-12-07T13:51:29;8.75;;;2.45;;
16880;SDS011;8557;52.068;5.198;2022-12-07T13:54:08;3.00;;;1.10;;
16880;SDS011;8557;52.068;5.198;2022-12-07T13:56:37;3.33;;;1.05;;
16880;SDS011;8557;52.068;5.198;2022-12-07T13:59:05;4.50;;;1.30;;
16880;SDS011;8557;52.068;5.198;2022-12-07T14:01:36;3.53;;;1.23;;
16880;SDS011;8557;52.068;5.198;2022-12-07T14:04:19;3.00;;;1.00;;
16880;SDS011;8557;52.068;5.198;2022-12-07T14:06:58;4.50;;;2.13;;
16880;SDS011;8557;52.068;5.198;2022-12-07T14:09:27;4.75;;;0.90;;
16880;SDS011;8557;52.068;5.198;2022-12-07T14:11:55;2.13;;;1.23;;
16880;SDS011;8557;52.068;5.198;2022-12-07T14:14:24;1.95;;;0.90;;
16880;SDS011;8557;52.068;5.198;2022-12-07T14:16:56;2.40;;;1.08;;
16880;SDS011;8557;52.068;5.198;2022-12-07T14:22:19;3.05;;;1.50;;
16880;SDS011;8557;52.068;5.198;2022-12-07T14:24:50;3.92;;;1.05;;
16880;SDS011;8557;52.068;5.198;2022-12-07T14:27:24;3.45;;;1.30;;
16880;SDS011;8557;52.068;5.198;2022-12-07T14:29:55;0.98;;;0.80;;
16880;SDS011;8557;52.068;5.198;2022-12-07T14:32:23;5.38;;;1.20;;
16880;SDS011;8557;52.068;5.198;2022-12-07T14:34:57;4.15;;;1.30;;
16880;SDS011;8557;52.068;5.198;2022-12-07T14:37:26;3.42;;;1.15;;
16880;SDS011;8557;52.068;5.198;2022-12-07T14:39:55;4.93;;;1.20;;
16880;SDS011;8557;52.068;5.198;2022-12-07T14:42:23;2.55;;;0.93;;
16880;SDS011;8557;52.068;5.198;2022-12-07T14:44:52;2.38;;;1.00;;
16880;SDS011;8557;52.068;5.198;2022-12-07T14:47:19;2.72;;;0.90;;
16880;SDS011;8557;52.068;5.198;2022-12-07T14:49:46;2.85;;;1.60;;
16880;SDS011;8557;52.068;5.198;2022-12-07T14:52:13;7.75;;;2.10;;
16880;SDS011;8557;52.068;5.198;2022-12-07T14:54:42;2.40;;;1.27;;
16880;SDS011;8557;52.068;5.198;2022-12-07T14:57:11;2.35;;;0.90;;
16880;SDS011;8557;52.068;5.198;2022-12-07T14:59:38;3.42;;;2.70;;
16880;SDS011;8557;52.068;5.198;2022-12-07T15:02:05;2.75;;;1.05;;
16880;SDS011;8557;52.068;5.198;2022-12-07T15:04:32;3.42;;;1.13;;
16880;SDS011;8557;52.068;5.198;2022-12-07T15:07:00;3.00;;;1.17;;
16880;SDS011;8557;52.068;5.198;2022-12-07T15:09:29;2.28;;;1.00;;
16880;SDS011;8557;52.068;5.198;2022-12-07T15:11:56;3.05;;;1.17;;
16880;SDS011;8557;52.068;5.198;2022-12-07T15:14:24;3.35;;;1.30;;
16880;SDS011;8557;52.068;5.198;2022-12-07T15:16:51;1.20;;;1.00;;
16880;SDS011;8557;52.068;5.198;2022-12-07T15:19:18;3.15;;;1.27;;
16880;SDS011;8557;52.068;5.198;2022-12-07T15:21:47;1.92;;;1.08;;
16880;SDS011;8557;52.068;5.198;2022-12-07T15:24:15;1.75;;;0.90;;
16880;SDS011;8557;52.068;5.198;2022-12-07T15:26:41;5.32;;;1.10;;
16880;SDS011;8557;52.068;5.198;2022-12-07T15:29:09;4.50;;;1.25;;
16880;SDS011;8557;52.068;5.198;2022-12-07T15:31:38;3.40;;;1.45;;
16880;SDS011;8557;52.068;5.198;2022-12-07T15:34:04;1.55;;;1.05;;
16880;SDS011;8557;52.068;5.198;2022-12-07T15:36:32;3.38;;;1.20;;
16880;SDS011;8557;52.068;5.198;2022-12-07T15:39:00;2.97;;;1.30;;
16880;SDS011;8557;52.068;5.198;2022-12-07T15:41:27;2.28;;;1.10;;
16880;SDS011;8557;52.068;5.198;2022-12-07T15:43:54;4.00;;;1.17;;
16880;SDS011;8557;52.068;5.198;2022-12-07T15:46:40;5.07;;;1.15;;